Farmer, Washington
Current Conditions -  °F | °C
As of 2:53 PM on Monday 20 Oct 2014 (Local Time) from KEPH Reporting Station
Overcast Overcast  
Wind Chill: 63°   Ceiling: 7000
Heat Index: 63°   Visibility: 10mi
Dew Point: 50°   Wind: 13mph
Humidity: 63%   Direction: 220°SW
Pressure: 29.73"   Gusts: NA
Location:  47.6257°N, 119.744°W
Report Text: KEPH 202153Z AUTO 22011KT 10SM BKN070 OVC090 17/10 A2973 RMK AO2 SLP066 T01720100
Loading
Personal Weather Stations






























Interactive Weather Map
Tropical Storm Tracking
New forecast layout! Learn more

10-Day Weather Forecast

Advertisements
Track Severe Weather on mobile